Morgan Ray — WDF6085 — position and weather

sailwx.info

Track history (hours):
 
Tides and Currents Weather Stations Pressure Air Temp Water Temp Dewpoint Dewpoint Depression Visibility Wind Speed Wind Dir Waves Ship Positions

Morgan Ray

Owner: Daigle Towing Service LLC., Belle Chasse, LA. More information available from US FCC via Universal Licensing System and Coast Guard Vessel Documentation Center.

Last reported at 2017-Mar-22 22:33 UTC. Time now 2017-Mar-23 20:17 UTC.
Position N 29°48' W 091°49'.

Length 20 m; draft 2 m.

Type: Tug. MMSI: 367470470.

Date/timePositionNaut miles runAvg speedWind from/ knotsBaromVisibWave heightAir tempDewpointWater temp
2017-Mar-22 22:33N 29°48' W 091°49'12 5.0
2017-Mar-22 20:05N 29°49' W 092°03'3 5.9
2017-Mar-22 19:33N 29°48' W 092°07'4 4.5
2017-Mar-22 18:33N 29°47' W 092°12'2 1.8
2017-Mar-22 17:33N 29°48' W 092°14'1 1.0
2017-Mar-22 16:33N 29°48' W 092°15'5 5.4
2017-Mar-22 15:33N 29°51' W 092°20'47 3.5
2017-Mar-22 02:14N 30°00' W 093°14'3 4.6
2017-Mar-22 01:33N 30°03' W 093°16'4 3.6
2017-Mar-22 00:33N 30°06' W 093°18'4 4.4
2017-Mar-21 23:33N 30°10' W 093°19'5 4.9
2017-Mar-21 22:33N 30°13' W 093°15'2 1.6
2017-Mar-21 21:26N 30°15' W 093°15'0 0.0
2017-Mar-19 18:06N 30°14' W 093°15'1 2.3
2017-Mar-19 17:33N 30°13' W 093°15'5 5.2
2017-Mar-19 16:33N 30°10' W 093°19'5 4.5
2017-Mar-19 15:33N 30°05' W 093°18'1 0.9
2017-Mar-19 14:33N 30°05' W 093°17'0 0.0
2017-Mar-19 13:33N 30°05' W 093°17'0 0.0
2017-Mar-19 12:33N 30°05' W 093°17'0 0.0
2017-Mar-19 11:33N 30°05' W 093°17'0 0.0
2017-Mar-19 10:33N 30°05' W 093°17'0 0.0
2017-Mar-19 09:33N 30°05' W 093°17'4 3.5
2017-Mar-19 08:33N 30°02' W 093°15'2 1.8
2017-Mar-19 07:33N 30°00' W 093°14'5 5.1
2017-Mar-19 06:33N 29°56' W 093°10'42 5.0
2017-Mar-18 22:12N 29°51' W 092°22'4 5.5
2017-Mar-18 21:33N 29°50' W 092°18'4 4.2
2017-Mar-18 20:33N 29°48' W 092°14'3 2.5
2017-Mar-18 19:33N 29°47' W 092°11'0 0.0
2017-Mar-18 18:33N 29°47' W 092°11'0 0.0
2017-Mar-18 17:33N 29°47' W 092°11'5 4.7
2017-Mar-18 16:33N 29°48' W 092°06'7 6.5
2017-Mar-18 15:32N 29°50' W 091°59'6 3.1
2017-Mar-18 13:33N 29°48' W 092°06'6 6.0
2017-Mar-18 12:33N 29°47' W 092°12'2 1.9
2017-Mar-18 11:33N 29°48' W 092°14'0 0.0
2017-Mar-18 10:33N 29°48' W 092°14'0 0.1
2017-Mar-18 09:33N 29°48' W 092°14'6 6.0
2017-Mar-18 08:33N 29°51' W 092°20'47 6.6
2017-Mar-18 01:23N 30°00' W 093°14'5 6.3
2017-Mar-18 00:33N 30°05' W 093°17'1 1.1
2017-Mar-17 23:33N 30°05' W 093°18'3 2.8
2017-Mar-17 22:33N 30°07' W 093°20'6 6.0
2017-Mar-17 21:33N 30°12' W 093°16'3 0.1
2017-Mar-16 15:04N 30°15' W 093°15'2 0.1
2017-Mar-16 02:33N 30°13' W 093°15'7 7.0
2017-Mar-16 01:33N 30°08' W 093°20'4 4.3
2017-Mar-16 00:33N 30°04' W 093°22'5 4.6
2017-Mar-15 23:33N 30°06' W 093°17'4 3.7
2017-Mar-15 22:33N 30°10' W 093°19'6 5.9
2017-Mar-15 21:33N 30°14' W 093°15'0 0.1
2017-Mar-15 15:17N 30°15' W 093°15'0 0.0
2017-Mar-14 13:22N 30°15' W 093°15'1 1.7
2017-Mar-14 12:33N 30°13' W 093°15'0 0.0
2017-Mar-14 11:33N 30°13' W 093°15'0 0.0
2017-Mar-14 10:33N 30°13' W 093°15'0 0.0
2017-Mar-14 09:33N 30°13' W 093°15'2 2.1
2017-Mar-14 08:33N 30°12' W 093°17'5 4.6
2017-Mar-14 07:33N 30°08' W 093°20'3 3.0
2017-Mar-14 06:33N 30°06' W 093°18'1 1.0
2017-Mar-14 05:33N 30°05' W 093°17'1 0.7
2017-Mar-14 04:33N 30°05' W 093°17'0 0.0
2017-Mar-14 03:33N 30°05' W 093°17'0 0.0
2017-Mar-14 02:33N 30°05' W 093°17'0 0.0
2017-Mar-14 01:33N 30°05' W 093°17'0 0.0
2017-Mar-14 00:33N 30°05' W 093°17'0 0.0
2017-Mar-13 23:33N 30°05' W 093°17'0 0.0
2017-Mar-13 22:33N 30°05' W 093°17'1 1.4
2017-Mar-13 21:33N 30°03' W 093°16'3 3.0
2017-Mar-13 20:33N 30°01' W 093°14'4 3.8
2017-Mar-13 19:33N 29°58' W 093°11'43 4.2
2017-Mar-13 09:14N 29°52' W 092°22'3 4.2
2017-Mar-13 08:33N 29°50' W 092°19'4 3.9
2017-Mar-13 07:34N 29°48' W 092°15'3 2.7
2017-Mar-13 06:33N 29°47' W 092°12'1 1.4
2017-Mar-13 05:33N 29°47' W 092°11'1 1.0
2017-Mar-13 04:33N 29°47' W 092°10'4 3.7
2017-Mar-13 03:33N 29°48' W 092°06'5 4.7
2017-Mar-13 02:33N 29°50' W 092°00'  
Track history (hours):
 
Tides and Currents Weather Stations Pressure Air Temp Water Temp Dewpoint Dewpoint Depression Visibility Wind Speed Wind Dir Waves Ship Positions

Morgan Ray

Owner: Daigle Towing Service LLC., Belle Chasse, LA. More information available from US FCC via Universal Licensing System and Coast Guard Vessel Documentation Center.

Last reported at 2017-Mar-22 22:33 UTC. Time now 2017-Mar-23 20:17 UTC.
Position N 29°48' W 091°49'.

Length 20 m; draft 2 m.

Type: Tug. MMSI: 367470470.

Date/timePositionNaut miles runAvg speedWind from/ knotsBaromVisibWave heightAir tempDewpointWater temp
2017-Mar-22 22:33N 29°48' W 091°49'12 5.0
2017-Mar-22 20:05N 29°49' W 092°03'3 5.9
2017-Mar-22 19:33N 29°48' W 092°07'4 4.5
2017-Mar-22 18:33N 29°47' W 092°12'2 1.8
2017-Mar-22 17:33N 29°48' W 092°14'1 1.0
2017-Mar-22 16:33N 29°48' W 092°15'5 5.4
2017-Mar-22 15:33N 29°51' W 092°20'47 3.5
2017-Mar-22 02:14N 30°00' W 093°14'3 4.6
2017-Mar-22 01:33N 30°03' W 093°16'4 3.6
2017-Mar-22 00:33N 30°06' W 093°18'4 4.4
2017-Mar-21 23:33N 30°10' W 093°19'5 4.9
2017-Mar-21 22:33N 30°13' W 093°15'2 1.6
2017-Mar-21 21:26N 30°15' W 093°15'0 0.0
2017-Mar-19 18:06N 30°14' W 093°15'1 2.3
2017-Mar-19 17:33N 30°13' W 093°15'5 5.2
2017-Mar-19 16:33N 30°10' W 093°19'5 4.5
2017-Mar-19 15:33N 30°05' W 093°18'1 0.9
2017-Mar-19 14:33N 30°05' W 093°17'0 0.0
2017-Mar-19 13:33N 30°05' W 093°17'0 0.0
2017-Mar-19 12:33N 30°05' W 093°17'0 0.0
2017-Mar-19 11:33N 30°05' W 093°17'0 0.0
2017-Mar-19 10:33N 30°05' W 093°17'0 0.0
2017-Mar-19 09:33N 30°05' W 093°17'4 3.5
2017-Mar-19 08:33N 30°02' W 093°15'2 1.8
2017-Mar-19 07:33N 30°00' W 093°14'5 5.1
2017-Mar-19 06:33N 29°56' W 093°10'42 5.0
2017-Mar-18 22:12N 29°51' W 092°22'4 5.5
2017-Mar-18 21:33N 29°50' W 092°18'4 4.2
2017-Mar-18 20:33N 29°48' W 092°14'3 2.5
2017-Mar-18 19:33N 29°47' W 092°11'0 0.0
2017-Mar-18 18:33N 29°47' W 092°11'0 0.0
2017-Mar-18 17:33N 29°47' W 092°11'5 4.7
2017-Mar-18 16:33N 29°48' W 092°06'7 6.5
2017-Mar-18 15:32N 29°50' W 091°59'6 3.1
2017-Mar-18 13:33N 29°48' W 092°06'6 6.0
2017-Mar-18 12:33N 29°47' W 092°12'2 1.9
2017-Mar-18 11:33N 29°48' W 092°14'0 0.0
2017-Mar-18 10:33N 29°48' W 092°14'0 0.1
2017-Mar-18 09:33N 29°48' W 092°14'6 6.0
2017-Mar-18 08:33N 29°51' W 092°20'47 6.6
2017-Mar-18 01:23N 30°00' W 093°14'5 6.3
2017-Mar-18 00:33N 30°05' W 093°17'1 1.1
2017-Mar-17 23:33N 30°05' W 093°18'3 2.8
2017-Mar-17 22:33N 30°07' W 093°20'6 6.0
2017-Mar-17 21:33N 30°12' W 093°16'3 0.1
2017-Mar-16 15:04N 30°15' W 093°15'2 0.1
2017-Mar-16 02:33N 30°13' W 093°15'7 7.0
2017-Mar-16 01:33N 30°08' W 093°20'4 4.3
2017-Mar-16 00:33N 30°04' W 093°22'5 4.6
2017-Mar-15 23:33N 30°06' W 093°17'4 3.7
2017-Mar-15 22:33N 30°10' W 093°19'6 5.9
2017-Mar-15 21:33N 30°14' W 093°15'0 0.1
2017-Mar-15 15:17N 30°15' W 093°15'0 0.0
2017-Mar-14 13:22N 30°15' W 093°15'1 1.7
2017-Mar-14 12:33N 30°13' W 093°15'0 0.0
2017-Mar-14 11:33N 30°13' W 093°15'0 0.0
2017-Mar-14 10:33N 30°13' W 093°15'0 0.0
2017-Mar-14 09:33N 30°13' W 093°15'2 2.1
2017-Mar-14 08:33N 30°12' W 093°17'5 4.6
2017-Mar-14 07:33N 30°08' W 093°20'3 3.0
2017-Mar-14 06:33N 30°06' W 093°18'1 1.0
2017-Mar-14 05:33N 30°05' W 093°17'1 0.7
2017-Mar-14 04:33N 30°05' W 093°17'0 0.0
2017-Mar-14 03:33N 30°05' W 093°17'0 0.0
2017-Mar-14 02:33N 30°05' W 093°17'0 0.0
2017-Mar-14 01:33N 30°05' W 093°17'0 0.0
2017-Mar-14 00:33N 30°05' W 093°17'0 0.0
2017-Mar-13 23:33N 30°05' W 093°17'0 0.0
2017-Mar-13 22:33N 30°05' W 093°17'1 1.4
2017-Mar-13 21:33N 30°03' W 093°16'3 3.0
2017-Mar-13 20:33N 30°01' W 093°14'4 3.8
2017-Mar-13 19:33N 29°58' W 093°11'43 4.2
2017-Mar-13 09:14N 29°52' W 092°22'3 4.2
2017-Mar-13 08:33N 29°50' W 092°19'4 3.9
2017-Mar-13 07:34N 29°48' W 092°15'3 2.7
2017-Mar-13 06:33N 29°47' W 092°12'1 1.4
2017-Mar-13 05:33N 29°47' W 092°11'1 1.0
2017-Mar-13 04:33N 29°47' W 092°10'4 3.7
2017-Mar-13 03:33N 29°48' W 092°06'5 4.7
2017-Mar-13 02:33N 29°50' W 092°00'  

Dump ship's entire track history